createdAt,value
2023-05-02T00:00:30.026Z,34.66
2023-05-02T00:01:05.998Z,34.81
2023-05-02T00:01:38.303Z,34.93
2023-05-02T00:02:16.039Z,34.94
2023-05-02T00:02:48.592Z,34.72
2023-05-02T00:03:21.271Z,34.35
2023-05-02T00:03:56.310Z,34.55
2023-05-02T00:04:28.876Z,34.55
2023-05-02T00:05:01.341Z,34.62
2023-05-02T00:05:37.219Z,34.21
2023-05-02T00:06:10.072Z,33.83
2023-05-02T00:06:42.902Z,33.72
2023-05-02T00:07:17.949Z,33.83
2023-05-02T00:07:50.313Z,33.90
2023-05-02T00:08:22.510Z,33.98
2023-05-02T00:08:57.919Z,33.81
2023-05-02T00:09:30.392Z,33.92
2023-05-02T00:10:03.321Z,33.92
2023-05-02T00:10:38.479Z,33.82
2023-05-02T00:11:10.840Z,33.42
2023-05-02T00:11:43.177Z,33.61
2023-05-02T00:12:17.950Z,33.81
2023-05-02T00:12:50.134Z,33.89
2023-05-02T00:13:22.322Z,33.49
2023-05-02T00:13:57.119Z,33.82
2023-05-02T00:14:29.373Z,34.05
2023-05-02T00:15:01.749Z,33.87
2023-05-02T00:15:36.572Z,33.62
2023-05-02T00:16:08.777Z,33.75
2023-05-02T00:16:41.075Z,33.21
2023-05-02T00:17:23.034Z,33.36
2023-05-02T00:17:55.380Z,33.29
2023-05-02T00:18:27.714Z,33.21
2023-05-02T00:19:02.708Z,33.24
2023-05-02T00:19:39.032Z,33.01
2023-05-02T00:20:12.508Z,32.90
2023-05-02T00:20:47.628Z,32.94
2023-05-02T00:21:19.937Z,32.98
2023-05-02T00:21:52.267Z,32.93
2023-05-02T00:22:28.508Z,32.84
2023-05-02T00:23:00.775Z,33.10
2023-05-02T00:23:33.109Z,32.88
2023-05-02T00:24:08.856Z,32.94
2023-05-02T00:24:41.071Z,33.38
2023-05-02T00:25:16.432Z,33.38
2023-05-02T00:25:51.536Z,33.25
2023-05-02T00:26:24.057Z,33.49
2023-05-02T00:26:56.471Z,33.81
2023-05-02T00:27:33.458Z,34.00
2023-05-02T00:28:05.975Z,33.58
2023-05-02T00:28:38.343Z,33.66
2023-05-02T00:29:13.112Z,34.17
2023-05-02T00:29:45.356Z,33.83
2023-05-02T00:30:18.586Z,34.12
2023-05-02T00:30:53.619Z,33.78
2023-05-02T00:31:26.013Z,34.09
2023-05-02T00:31:58.491Z,34.08
2023-05-02T00:32:35.936Z,34.08
2023-05-02T00:33:08.228Z,33.96
2023-05-02T00:33:40.463Z,33.83
2023-05-02T00:34:15.280Z,33.93
2023-05-02T00:34:47.494Z,33.81
2023-05-02T00:35:19.786Z,33.60
2023-05-02T00:35:54.688Z,33.89
2023-05-02T00:36:27.693Z,33.84
2023-05-02T00:36:59.919Z,33.31
2023-05-02T00:37:34.788Z,33.78
2023-05-02T00:38:07.903Z,33.54
2023-05-02T00:38:40.319Z,33.68
2023-05-02T00:39:15.149Z,33.80
2023-05-02T00:39:47.383Z,34.02
2023-05-02T00:40:19.787Z,34.02
2023-05-02T00:40:54.767Z,34.22
2023-05-02T00:41:26.983Z,34.14
2023-05-02T00:41:59.621Z,34.00
2023-05-02T00:42:36.647Z,34.15
2023-05-02T00:43:08.942Z,34.57
2023-05-02T00:43:41.472Z,34.63
2023-05-02T00:44:16.723Z,34.89
2023-05-02T00:44:48.983Z,34.87
2023-05-02T00:45:21.268Z,34.85
2023-05-02T00:45:56.268Z,34.82
2023-05-02T00:46:28.659Z,35.15
2023-05-02T00:47:02.113Z,34.47
2023-05-02T00:47:39.735Z,34.83
2023-05-02T00:48:12.647Z,34.83
2023-05-02T00:48:45.481Z,34.62
2023-05-02T00:49:20.266Z,34.62
2023-05-02T00:49:52.447Z,34.92
2023-05-02T00:50:27.655Z,34.80
2023-05-02T00:51:02.727Z,34.77
2023-05-02T00:51:34.917Z,34.95
2023-05-02T00:52:07.921Z,35.14
2023-05-02T00:52:42.783Z,34.63
2023-05-02T00:53:15.655Z,34.78
2023-05-02T00:53:48.734Z,35.23
2023-05-02T00:54:23.697Z,35.02
2023-05-02T00:54:56.733Z,35.02
2023-05-02T00:55:28.987Z,34.69
2023-05-02T00:56:05.189Z,34.94
2023-05-02T00:56:37.592Z,34.44
2023-05-02T00:57:09.835Z,34.83
2023-05-02T00:57:44.801Z,34.83
2023-05-02T00:58:19.692Z,34.41
2023-05-02T00:58:55.000Z,34.40
2023-05-02T00:59:27.435Z,34.21
2023-05-02T00:59:59.872Z,33.90
2023-05-02T01:00:43.163Z,34.16
2023-05-02T01:01:30.123Z,34.13
2023-05-02T01:02:15.576Z,34.07
2023-05-02T01:02:59.348Z,34.06
2023-05-02T01:03:40.067Z,34.33
2023-05-02T01:04:26.401Z,34.25
2023-05-02T01:05:06.258Z,33.99
2023-05-02T01:05:49.789Z,34.16
2023-05-02T01:06:36.977Z,34.46
2023-05-02T01:07:43.126Z,33.96
2023-05-02T01:08:26.205Z,34.02
2023-05-02T01:09:12.605Z,34.44
2023-05-02T01:09:57.921Z,34.41
2023-05-02T01:10:42.095Z,34.06
2023-05-02T01:11:17.241Z,34.35
2023-05-02T01:12:03.397Z,34.46
2023-05-02T01:12:45.302Z,34.07
2023-05-02T01:13:22.683Z,34.46
2023-05-02T01:13:59.149Z,34.61
2023-05-02T01:14:37.128Z,34.11
2023-05-02T01:15:15.586Z,34.24
2023-05-02T01:15:51.896Z,34.10
2023-05-02T01:16:28.264Z,34.36
2023-05-02T01:17:05.107Z,34.03
2023-05-02T01:17:39.364Z,34.02
2023-05-02T01:18:19.758Z,34.18
2023-05-02T01:18:53.293Z,33.98
2023-05-02T01:19:32.172Z,33.97
2023-05-02T01:20:11.507Z,33.74
2023-05-02T01:20:47.087Z,33.98
2023-05-02T01:21:19.390Z,34.21
2023-05-02T01:21:55.519Z,33.93
2023-05-02T01:22:29.405Z,33.78
2023-05-02T01:23:13.500Z,33.78
2023-05-02T01:23:54.794Z,34.11
2023-05-02T01:24:33.040Z,33.67
2023-05-02T01:25:17.380Z,34.01
2023-05-02T01:26:02.543Z,33.44
2023-05-02T01:26:48.743Z,33.77
2023-05-02T01:27:31.355Z,33.91
2023-05-02T01:28:17.708Z,33.91
2023-05-02T01:29:03.690Z,33.60
2023-05-02T01:29:39.780Z,33.65
2023-05-02T01:30:16.973Z,33.50
2023-05-02T01:30:50.898Z,33.87
2023-05-02T01:31:28.387Z,33.64
2023-05-02T01:32:03.323Z,33.53
2023-05-02T01:32:41.705Z,33.77
2023-05-02T01:33:17.751Z,33.45
2023-05-02T01:33:51.803Z,33.35
2023-05-02T01:34:28.548Z,33.20
2023-05-02T01:35:02.803Z,33.12
2023-05-02T01:35:36.132Z,33.03
2023-05-02T01:36:11.879Z,33.17
2023-05-02T01:36:46.899Z,33.12
2023-05-02T01:37:23.211Z,33.17
2023-05-02T01:37:58.318Z,32.86
2023-05-02T01:38:31.859Z,32.82
2023-05-02T01:39:08.553Z,32.88
2023-05-02T01:39:43.039Z,32.88
2023-05-02T01:40:20.698Z,32.88
2023-05-02T01:40:57.428Z,32.90
2023-05-02T01:41:32.579Z,32.98
2023-05-02T01:42:05.899Z,32.85
2023-05-02T01:42:42.803Z,32.53
2023-05-02T01:43:17.157Z,32.71
2023-05-02T01:43:50.105Z,32.46
2023-05-02T01:44:28.482Z,32.61
2023-05-02T01:45:03.692Z,32.97
2023-05-02T01:45:38.234Z,32.36
2023-05-02T01:46:14.607Z,32.65
2023-05-02T01:46:48.429Z,32.47
2023-05-02T01:47:23.229Z,32.42
2023-05-02T01:47:58.452Z,32.33
2023-05-02T01:48:31.689Z,32.66
2023-05-02T01:49:06.993Z,33.03
2023-05-02T01:49:43.953Z,33.00
2023-05-02T01:50:20.563Z,32.73
2023-05-02T01:50:52.950Z,32.59
2023-05-02T01:51:33.946Z,32.69
2023-05-02T01:52:11.763Z,32.69
2023-05-02T01:52:45.351Z,32.83
2023-05-02T01:53:22.621Z,32.63
2023-05-02T01:53:54.923Z,32.22
2023-05-02T01:54:27.849Z,32.88
2023-05-02T01:55:05.233Z,32.88
2023-05-02T01:55:39.356Z,32.85
2023-05-02T01:56:11.755Z,33.07
2023-05-02T01:56:47.529Z,33.13
2023-05-02T01:57:20.141Z,33.21
2023-05-02T01:57:54.760Z,33.40
2023-05-02T01:58:32.319Z,33.18
2023-05-02T01:59:08.315Z,33.38
2023-05-02T01:59:44.693Z,33.34
2023-05-02T02:00:21.729Z,33.29
2023-05-02T02:00:55.050Z,33.33
2023-05-02T02:01:31.345Z,33.17
2023-05-02T02:02:08.729Z,33.30
2023-05-02T02:02:42.722Z,33.34
2023-05-02T02:03:17.375Z,33.14
2023-05-02T02:03:52.719Z,33.14
2023-05-02T02:04:27.202Z,33.38
2023-05-02T02:05:04.206Z,33.19
2023-05-02T02:05:38.228Z,33.30
2023-05-02T02:06:11.789Z,33.73
2023-05-02T02:06:51.448Z,33.61
2023-05-02T02:07:24.350Z,33.74
2023-05-02T02:07:56.758Z,33.77
2023-05-02T02:08:31.695Z,33.85
2023-05-02T02:09:04.377Z,34.11
2023-05-02T02:09:36.796Z,33.83
2023-05-02T02:10:12.267Z,33.64
2023-05-02T02:10:50.210Z,33.74
2023-05-02T02:11:26.742Z,33.55
2023-05-02T02:12:08.467Z,33.86
2023-05-02T02:12:43.427Z,34.05
2023-05-02T02:13:19.889Z,33.76
2023-05-02T02:14:03.639Z,33.88
2023-05-02T02:14:38.572Z,33.64
2023-05-02T02:15:28.619Z,33.52
2023-05-02T02:16:04.443Z,33.59
2023-05-02T02:16:39.933Z,33.77
2023-05-02T02:17:18.954Z,33.85
2023-05-02T02:18:00.519Z,33.60
2023-05-02T02:18:37.237Z,33.84
2023-05-02T02:19:17.094Z,33.53
2023-05-02T02:19:53.119Z,33.55
2023-05-02T02:20:26.804Z,33.22
2023-05-02T02:21:02.647Z,33.35
2023-05-02T02:21:35.867Z,33.49
2023-05-02T02:22:08.764Z,33.33
2023-05-02T02:22:46.005Z,33.66
2023-05-02T02:23:22.241Z,33.49
2023-05-02T02:23:58.027Z,33.44
2023-05-02T02:24:33.850Z,33.50
2023-05-02T02:25:09.089Z,33.69
2023-05-02T02:25:42.605Z,33.92
2023-05-02T02:26:18.436Z,33.46
2023-05-02T02:26:51.586Z,33.20
2023-05-02T02:27:23.845Z,33.66
2023-05-02T02:28:00.142Z,33.60
2023-05-02T02:28:34.842Z,33.36
2023-05-02T02:29:07.137Z,33.46
2023-05-02T02:29:42.460Z,33.93
2023-05-02T02:30:17.570Z,34.04
2023-05-02T02:30:50.356Z,33.70
2023-05-02T02:31:25.971Z,33.89
2023-05-02T02:31:58.517Z,33.81
2023-05-02T02:32:30.901Z,33.78
2023-05-02T02:33:05.802Z,33.56
2023-05-02T02:33:38.545Z,33.93
2023-05-02T02:34:11.353Z,33.64
2023-05-02T02:34:46.191Z,33.72
2023-05-02T02:35:18.656Z,33.71
2023-05-02T02:35:58.868Z,33.87
2023-05-02T02:36:38.365Z,33.83
2023-05-02T02:37:16.999Z,33.82
2023-05-02T02:37:57.005Z,33.81
2023-05-02T02:38:39.757Z,33.70
2023-05-02T02:39:18.604Z,33.89
2023-05-02T02:40:03.586Z,34.43
2023-05-02T02:40:42.351Z,33.73
2023-05-02T02:41:22.070Z,33.83
2023-05-02T02:42:05.679Z,34.05
2023-05-02T02:42:45.068Z,34.21
2023-05-02T02:43:24.249Z,34.44
2023-05-02T02:44:07.219Z,34.12
2023-05-02T02:44:56.638Z,34.27
2023-05-02T02:45:40.439Z,34.18
2023-05-02T02:46:19.935Z,34.67
2023-05-02T02:47:02.919Z,34.51
2023-05-02T02:47:45.333Z,34.42
2023-05-02T02:48:28.153Z,34.52
2023-05-02T02:49:16.880Z,34.52
2023-05-02T02:49:54.254Z,34.58
2023-05-02T02:50:35.052Z,34.43
2023-05-02T02:51:14.202Z,34.51
2023-05-02T02:51:53.304Z,34.79
2023-05-02T02:52:36.256Z,34.91
2023-05-02T02:53:13.248Z,34.91
2023-05-02T02:54:01.268Z,34.81
2023-05-02T02:54:40.374Z,35.01
2023-05-02T02:55:20.535Z,34.91
2023-05-02T02:56:00.745Z,34.89
2023-05-02T02:56:39.507Z,34.70
2023-05-02T02:57:20.559Z,34.76
2023-05-02T02:58:02.701Z,34.60
2023-05-02T02:58:43.892Z,34.96
2023-05-02T02:59:23.445Z,34.61
2023-05-02T03:00:07.438Z,35.15
2023-05-02T03:00:44.981Z,35.12
2023-05-02T03:01:20.672Z,35.23
2023-05-02T03:02:04.622Z,35.23
2023-05-02T03:02:40.443Z,35.15
2023-05-02T03:03:15.887Z,34.93
2023-05-02T03:03:52.553Z,35.14
2023-05-02T03:04:28.067Z,35.10
2023-05-02T03:05:05.576Z,34.82
2023-05-02T03:05:38.193Z,35.21
2023-05-02T03:06:10.615Z,34.92
2023-05-02T03:06:45.574Z,34.97
2023-05-02T03:07:18.129Z,35.01
2023-05-02T03:07:51.346Z,34.69
2023-05-02T03:08:27.868Z,34.83
2023-05-02T03:09:00.113Z,34.33
2023-05-02T03:09:43.324Z,34.61
2023-05-02T03:10:20.994Z,34.70
2023-05-02T03:10:53.787Z,34.38
2023-05-02T03:11:27.653Z,34.30
2023-05-02T03:12:03.321Z,34.66
2023-05-02T03:12:35.792Z,34.69
2023-05-02T03:13:11.825Z,34.63
2023-05-02T03:13:46.488Z,35.16
2023-05-02T03:14:21.562Z,34.63
2023-05-02T03:15:00.173Z,34.72
2023-05-02T03:15:58.997Z,34.66
2023-05-02T03:16:42.967Z,34.80
2023-05-02T03:17:20.173Z,34.83
2023-05-02T03:17:52.476Z,34.95
2023-05-02T03:18:27.421Z,34.62
2023-05-02T03:19:00.190Z,34.81
2023-05-02T03:19:35.522Z,34.75
2023-05-02T03:20:08.851Z,34.49
2023-05-02T03:20:42.222Z,34.80
2023-05-02T03:21:17.285Z,34.79
2023-05-02T03:21:49.462Z,34.85
2023-05-02T03:22:27.996Z,34.90
2023-05-02T03:23:00.301Z,34.92
2023-05-02T03:23:32.478Z,34.79
2023-05-02T03:24:08.221Z,35.14
2023-05-02T03:24:40.467Z,35.24
2023-05-02T03:25:16.328Z,35.09
2023-05-02T03:25:51.897Z,35.32
2023-05-02T03:26:28.602Z,35.21
2023-05-02T03:27:03.531Z,34.92
2023-05-02T03:27:41.110Z,35.23
2023-05-02T03:28:15.872Z,35.75
2023-05-02T03:28:53.517Z,35.45
2023-05-02T03:29:32.458Z,34.86
2023-05-02T03:30:05.685Z,35.12
2023-05-02T03:30:42.103Z,35.25
2023-05-02T03:31:14.911Z,35.21
2023-05-02T03:31:52.521Z,34.94
2023-05-02T03:32:26.133Z,35.27
2023-05-02T03:32:58.579Z,34.95
2023-05-02T03:33:33.506Z,35.08
2023-05-02T03:34:05.869Z,34.72
2023-05-02T03:34:39.103Z,34.50
2023-05-02T03:35:13.924Z,34.94
2023-05-02T03:35:49.408Z,34.60
2023-05-02T03:36:24.301Z,34.89
2023-05-02T03:36:59.100Z,34.74
2023-05-02T03:37:31.628Z,34.89
2023-05-02T03:38:08.007Z,34.53
2023-05-02T03:38:40.572Z,34.58
2023-05-02T03:39:18.825Z,34.79
2023-05-02T03:39:51.383Z,34.88
2023-05-02T03:40:23.640Z,34.54
2023-05-02T03:40:57.691Z,35.13
2023-05-02T03:41:33.290Z,34.82
2023-05-02T03:42:10.934Z,34.54
2023-05-02T03:42:43.181Z,34.46
2023-05-02T03:43:29.937Z,34.88
2023-05-02T03:44:02.666Z,34.95
2023-05-02T03:44:37.745Z,34.73
2023-05-02T03:45:11.146Z,34.83
2023-05-02T03:45:43.440Z,34.44
2023-05-02T03:46:16.072Z,34.33
2023-05-02T03:46:55.375Z,34.74
2023-05-02T03:47:27.789Z,34.37
2023-05-02T03:48:00.270Z,34.48
2023-05-02T03:48:32.977Z,34.72
2023-05-02T03:49:08.482Z,34.39
2023-05-02T03:49:40.999Z,34.27
2023-05-02T03:50:13.787Z,34.60
2023-05-02T03:50:50.060Z,34.45
2023-05-02T03:51:22.340Z,34.50
2023-05-02T03:51:57.451Z,34.26
2023-05-02T03:52:37.608Z,34.39
2023-05-02T03:53:10.268Z,34.66
2023-05-02T03:53:54.997Z,34.17
2023-05-02T03:54:27.303Z,33.96
2023-05-02T03:55:02.458Z,34.36
2023-05-02T03:55:42.602Z,34.86
2023-05-02T03:56:20.468Z,34.34
2023-05-02T03:57:04.332Z,34.23
2023-05-02T03:57:38.452Z,34.41
2023-05-02T03:58:11.933Z,34.20
2023-05-02T03:58:46.769Z,34.01
2023-05-02T03:59:19.429Z,34.17
2023-05-02T03:59:52.009Z,33.99
2023-05-02T04:00:35.323Z,34.16
2023-05-02T04:01:15.410Z,34.06
2023-05-02T04:01:50.584Z,34.19
2023-05-02T04:02:30.255Z,34.24
2023-05-02T04:03:03.444Z,34.08
2023-05-02T04:03:37.189Z,33.74
2023-05-02T04:04:12.135Z,34.14
2023-05-02T04:04:51.410Z,34.36
2023-05-02T04:05:26.218Z,33.97
2023-05-02T04:06:01.416Z,34.33
2023-05-02T04:06:33.775Z,33.86
2023-05-02T04:07:15.797Z,33.68
2023-05-02T04:07:51.232Z,34.46
2023-05-02T04:08:24.055Z,33.76
2023-05-02T04:08:58.056Z,34.00
2023-05-02T04:09:33.160Z,34.02
2023-05-02T04:10:16.618Z,33.91
2023-05-02T04:10:53.355Z,34.11
2023-05-02T04:11:29.735Z,33.94
2023-05-02T04:12:02.309Z,34.56
2023-05-02T04:12:35.903Z,33.96
2023-05-02T04:13:10.820Z,33.61
2023-05-02T04:13:45.881Z,34.19
2023-05-02T04:14:18.089Z,34.52
2023-05-02T04:14:53.746Z,34.00
2023-05-02T04:15:29.286Z,34.22
2023-05-02T04:16:04.748Z,33.90
2023-05-02T04:16:39.708Z,34.02
2023-05-02T04:17:12.292Z,34.20
2023-05-02T04:17:54.309Z,34.12
2023-05-02T04:18:27.012Z,34.13
2023-05-02T04:18:59.879Z,34.16
2023-05-02T04:19:35.234Z,33.80
2023-05-02T04:20:09.433Z,33.88
2023-05-02T04:20:44.680Z,34.11
2023-05-02T04:21:21.175Z,34.10
2023-05-02T04:21:53.599Z,34.29
2023-05-02T04:22:25.806Z,33.99
2023-05-02T04:23:05.136Z,34.43
2023-05-02T04:23:37.968Z,34.02
2023-05-02T04:24:10.596Z,34.52
2023-05-02T04:24:46.176Z,34.10
2023-05-02T04:25:19.047Z,34.54
2023-05-02T04:25:53.538Z,34.30
2023-05-02T04:26:29.855Z,34.69
2023-05-02T04:27:08.907Z,34.41
2023-05-02T04:27:41.828Z,34.60
2023-05-02T04:28:19.395Z,34.40
2023-05-02T04:28:51.597Z,34.64
2023-05-02T04:29:24.654Z,34.33
2023-05-02T04:30:00.088Z,34.15
2023-05-02T04:30:33.006Z,34.24
2023-05-02T04:31:15.738Z,34.16
2023-05-02T04:31:51.050Z,34.63
2023-05-02T04:32:23.680Z,34.20
2023-05-02T04:33:01.422Z,34.52
2023-05-02T04:33:37.778Z,34.35
2023-05-02T04:34:10.029Z,34.46
2023-05-02T04:34:50.031Z,34.83
2023-05-02T04:35:22.993Z,34.53
2023-05-02T04:35:55.586Z,34.74
2023-05-02T04:36:31.644Z,34.39
2023-05-02T04:37:03.852Z,34.45
2023-05-02T04:37:38.117Z,34.82
2023-05-02T04:38:13.530Z,35.06
2023-05-02T04:38:46.779Z,35.06
2023-05-02T04:39:20.413Z,34.56
2023-05-02T04:40:06.464Z,35.01
2023-05-02T04:40:39.005Z,34.78
2023-05-02T04:41:16.146Z,34.83
2023-05-02T04:41:53.643Z,34.72
2023-05-02T04:42:30.524Z,34.68
2023-05-02T04:43:16.541Z,34.72
2023-05-02T04:43:56.756Z,34.81
2023-05-02T04:44:28.945Z,34.98
2023-05-02T04:45:02.296Z,35.22
2023-05-02T04:45:38.063Z,35.01
2023-05-02T04:46:14.725Z,34.45
2023-05-02T04:46:47.123Z,34.50
2023-05-02T04:47:22.330Z,34.53
2023-05-02T04:47:54.806Z,34.46
2023-05-02T04:48:32.292Z,34.37
2023-05-02T04:49:04.562Z,34.15
2023-05-02T04:49:36.887Z,34.10
2023-05-02T04:50:13.127Z,34.00
2023-05-02T04:50:45.967Z,33.64
2023-05-02T04:51:18.244Z,33.93
2023-05-02T04:51:56.022Z,33.94
2023-05-02T04:52:30.678Z,34.12
2023-05-02T04:53:05.625Z,34.09
2023-05-02T04:53:39.215Z,33.86
2023-05-02T04:54:11.679Z,33.61
2023-05-02T04:54:46.681Z,33.97
2023-05-02T04:55:19.168Z,33.35
2023-05-02T04:55:51.513Z,33.76
2023-05-02T04:56:27.181Z,33.25
2023-05-02T04:56:59.868Z,33.20
2023-05-02T04:57:32.114Z,33.40
2023-05-02T04:58:08.520Z,33.74
2023-05-02T04:58:41.284Z,34.08
2023-05-02T04:59:17.865Z,33.61
2023-05-02T04:59:50.183Z,33.68
2023-05-02T05:00:22.582Z,34.09
2023-05-02T05:00:57.712Z,34.00
2023-05-02T05:01:30.307Z,33.92
2023-05-02T05:02:03.222Z,33.80
2023-05-02T05:02:39.261Z,34.22
2023-05-02T05:03:11.709Z,33.93
2023-05-02T05:03:46.699Z,33.99
2023-05-02T05:04:23.747Z,34.17
2023-05-02T05:04:56.087Z,33.84
2023-05-02T05:05:28.430Z,33.92
2023-05-02T05:06:03.688Z,33.75
2023-05-02T05:06:36.666Z,33.63
2023-05-02T05:07:12.212Z,33.82
2023-05-02T05:07:45.608Z,33.70
2023-05-02T05:08:18.702Z,33.67
2023-05-02T05:08:53.890Z,33.76
2023-05-02T05:09:26.260Z,33.64
2023-05-02T05:09:59.755Z,33.47
2023-05-02T05:10:38.563Z,33.62
2023-05-02T05:11:10.820Z,33.68
2023-05-02T05:11:43.836Z,33.84
2023-05-02T05:12:18.971Z,34.15
2023-05-02T05:12:51.495Z,33.89
2023-05-02T05:13:23.690Z,34.03
2023-05-02T05:13:59.738Z,33.99
2023-05-02T05:14:33.414Z,33.87
2023-05-02T05:15:10.310Z,33.94
2023-05-02T05:15:42.692Z,33.87
2023-05-02T05:16:15.576Z,33.77
2023-05-02T05:16:51.725Z,34.04
2023-05-02T05:17:23.993Z,34.23
2023-05-02T05:17:59.023Z,34.74
2023-05-02T05:18:57.319Z,34.44
2023-05-02T05:19:29.566Z,34.55
2023-05-02T05:20:03.511Z,34.57
2023-05-02T05:20:38.955Z,33.79
2023-05-02T05:21:11.442Z,34.04
2023-05-02T05:21:44.461Z,34.11
2023-05-02T05:22:21.057Z,33.94
2023-05-02T05:22:53.234Z,33.71
2023-05-02T05:23:27.247Z,33.85
2023-05-02T05:24:02.592Z,33.92
2023-05-02T05:24:35.148Z,34.06
2023-05-02T05:25:08.682Z,34.05
2023-05-02T05:25:45.593Z,33.76
2023-05-02T05:26:21.161Z,33.66
2023-05-02T05:26:56.949Z,33.35
2023-05-02T05:27:29.426Z,33.73
2023-05-02T05:28:01.838Z,33.88
2023-05-02T05:28:37.514Z,33.81
2023-05-02T05:29:09.840Z,33.83
2023-05-02T05:29:48.661Z,33.63
2023-05-02T05:30:21.800Z,33.95
2023-05-02T05:30:54.218Z,33.61
2023-05-02T05:31:30.560Z,33.49
2023-05-02T05:32:06.529Z,33.58
2023-05-02T05:32:42.428Z,33.33
2023-05-02T05:33:15.401Z,33.05
2023-05-02T05:33:48.321Z,32.97
2023-05-02T05:34:26.968Z,32.86
2023-05-02T05:35:02.574Z,33.32
2023-05-02T05:35:37.381Z,33.29
2023-05-02T05:36:11.243Z,33.17
2023-05-02T05:36:43.715Z,32.70
2023-05-02T05:37:19.034Z,32.36
2023-05-02T05:37:51.400Z,33.09
2023-05-02T05:38:24.021Z,32.79
2023-05-02T05:38:58.916Z,33.21
2023-05-02T05:39:31.324Z,32.95
2023-05-02T05:40:06.262Z,33.12
2023-05-02T05:40:41.074Z,32.72
2023-05-02T05:41:14.349Z,32.43
2023-05-02T05:41:51.865Z,32.55
2023-05-02T05:42:27.332Z,32.12
2023-05-02T05:43:03.688Z,32.79
2023-05-02T05:43:42.476Z,32.44
2023-05-02T05:44:14.860Z,32.46
2023-05-02T05:44:47.094Z,32.27
2023-05-02T05:45:23.096Z,32.55
2023-05-02T05:45:56.061Z,32.33
2023-05-02T05:46:31.126Z,32.06
2023-05-02T05:47:04.136Z,32.11
2023-05-02T05:47:39.165Z,31.98
2023-05-02T05:48:11.459Z,32.02
2023-05-02T05:48:50.201Z,32.29
2023-05-02T05:49:25.168Z,32.66
2023-05-02T05:49:58.276Z,32.51
2023-05-02T05:50:37.091Z,32.10
2023-05-02T05:51:09.434Z,32.04
2023-05-02T05:51:44.269Z,31.87
2023-05-02T05:52:16.567Z,31.80
2023-05-02T05:52:48.855Z,32.20
2023-05-02T05:53:24.229Z,32.01
2023-05-02T05:53:56.467Z,31.99
2023-05-02T05:54:31.459Z,31.98
2023-05-02T05:55:07.038Z,31.50
2023-05-02T05:55:41.562Z,31.53
2023-05-02T05:56:18.343Z,31.53
2023-05-02T05:56:58.042Z,31.64
2023-05-02T05:57:30.567Z,31.56
2023-05-02T05:58:05.468Z,31.95
2023-05-02T05:58:38.425Z,31.81
2023-05-02T05:59:13.782Z,31.91
2023-05-02T05:59:46.014Z,32.21
2023-05-02T06:00:20.753Z,32.34
2023-05-02T06:00:58.885Z,32.12
2023-05-02T06:01:32.389Z,31.94
2023-05-02T06:02:05.702Z,31.62
2023-05-02T06:02:41.047Z,31.56
2023-05-02T06:03:13.992Z,31.93
2023-05-02T06:03:46.566Z,31.77
2023-05-02T06:04:22.412Z,31.86
2023-05-02T06:04:59.383Z,31.77
2023-05-02T06:05:34.594Z,31.85
2023-05-02T06:06:06.954Z,31.94
2023-05-02T06:06:41.921Z,31.49
2023-05-02T06:07:14.118Z,31.79
2023-05-02T06:07:49.210Z,31.44
2023-05-02T06:08:21.813Z,31.52
2023-05-02T06:08:56.973Z,31.66
2023-05-02T06:09:29.349Z,31.63
2023-05-02T06:10:04.173Z,31.36
2023-05-02T06:10:38.703Z,31.52
2023-05-02T06:11:11.223Z,31.82
2023-05-02T06:11:46.282Z,31.74
2023-05-02T06:12:18.754Z,31.81
2023-05-02T06:12:51.847Z,31.65
2023-05-02T06:13:30.844Z,31.81
2023-05-02T06:14:03.461Z,31.75
2023-05-02T06:14:38.397Z,31.41
2023-05-02T06:15:11.075Z,31.85
2023-05-02T06:15:43.738Z,31.57
2023-05-02T06:16:18.641Z,31.61
2023-05-02T06:16:51.422Z,32.01
2023-05-02T06:17:26.708Z,32.02
2023-05-02T06:17:59.037Z,32.14
2023-05-02T06:18:31.353Z,31.64
2023-05-02T06:19:06.229Z,31.63
2023-05-02T06:19:38.479Z,32.02
2023-05-02T06:20:16.557Z,32.72
2023-05-02T06:20:51.554Z,32.09
2023-05-02T06:21:23.872Z,32.04
2023-05-02T06:21:56.150Z,32.34
2023-05-02T06:22:30.955Z,32.60
2023-05-02T06:23:03.192Z,32.32
2023-05-02T06:23:38.377Z,32.20
2023-05-02T06:24:11.984Z,32.12
2023-05-02T06:24:44.286Z,31.65
2023-05-02T06:25:19.344Z,32.02
2023-05-02T06:25:51.581Z,31.98
2023-05-02T06:26:26.421Z,31.79
2023-05-02T06:26:59.334Z,32.44
2023-05-02T06:27:33.677Z,32.13
2023-05-02T06:28:09.724Z,31.97
2023-05-02T06:28:42.077Z,31.68
2023-05-02T06:29:16.997Z,31.67
2023-05-02T06:29:51.594Z,30.99
2023-05-02T06:30:27.279Z,31.46
2023-05-02T06:31:01.366Z,31.29
2023-05-02T06:31:33.749Z,31.31
2023-05-02T06:32:09.027Z,31.15
2023-05-02T06:32:42.595Z,30.96
2023-05-02T06:33:15.038Z,30.93
2023-05-02T06:33:50.041Z,30.88
2023-05-02T06:34:22.626Z,30.94
2023-05-02T06:34:55.079Z,30.87
2023-05-02T06:35:32.692Z,31.13
2023-05-02T06:36:05.233Z,31.36
2023-05-02T06:36:40.004Z,31.10
2023-05-02T06:37:12.441Z,31.53
2023-05-02T06:37:47.299Z,31.21
2023-05-02T06:38:19.661Z,31.34
2023-05-02T06:38:54.559Z,31.53
2023-05-02T06:39:26.813Z,31.64
2023-05-02T06:39:59.195Z,31.16
2023-05-02T06:40:34.119Z,30.97
2023-05-02T06:41:06.362Z,31.03
2023-05-02T06:41:41.961Z,30.87
2023-05-02T06:42:19.376Z,31.07
2023-05-02T06:42:51.610Z,31.71
2023-05-02T06:43:26.726Z,31.63
2023-05-02T06:43:59.028Z,31.48
2023-05-02T06:44:31.270Z,31.51
2023-05-02T06:45:07.225Z,31.02
2023-05-02T06:45:39.698Z,31.38
2023-05-02T06:46:12.036Z,31.76
2023-05-02T06:46:46.828Z,31.59
2023-05-02T06:47:19.127Z,31.09
2023-05-02T06:47:51.441Z,31.73
2023-05-02T06:48:26.226Z,31.62
2023-05-02T06:48:58.455Z,31.41
2023-05-02T06:49:30.714Z,31.96
2023-05-02T06:50:05.687Z,31.80
2023-05-02T06:50:40.736Z,31.75
2023-05-02T06:51:15.083Z,31.27
2023-05-02T06:51:50.013Z,31.65
2023-05-02T06:52:22.174Z,31.34
2023-05-02T06:52:56.964Z,30.95
2023-05-02T06:53:30.604Z,31.16
2023-05-02T06:54:04.581Z,31.05
2023-05-02T06:54:39.764Z,31.36
2023-05-02T06:55:12.000Z,31.24
2023-05-02T06:55:49.020Z,31.11
2023-05-02T06:56:21.961Z,31.23
2023-05-02T06:56:54.721Z,31.43
2023-05-02T06:57:29.696Z,31.21
2023-05-02T06:58:01.991Z,31.08
2023-05-02T06:58:36.802Z,30.93
2023-05-02T06:59:09.133Z,31.25
2023-05-02T06:59:41.543Z,31.26
2023-05-02T07:00:19.020Z,31.21
2023-05-02T07:00:51.506Z,31.46
2023-05-02T07:01:26.469Z,31.21
2023-05-02T07:01:58.719Z,31.01
2023-05-02T07:02:30.918Z,30.87
2023-05-02T07:03:05.809Z,31.07
2023-05-02T07:03:38.051Z,31.33
2023-05-02T07:04:10.338Z,30.94
2023-05-02T07:04:45.519Z,31.16
2023-05-02T07:05:18.191Z,30.68
2023-05-02T07:05:53.221Z,30.73
2023-05-02T07:06:28.147Z,30.64
2023-05-02T07:07:00.487Z,31.23
2023-05-02T07:07:32.731Z,30.96
2023-05-02T07:08:07.936Z,30.93
2023-05-02T07:08:40.238Z,31.04
2023-05-02T07:09:15.026Z,30.83
2023-05-02T07:09:47.217Z,30.81
2023-05-02T07:10:22.070Z,30.74
2023-05-02T07:10:54.253Z,30.65
2023-05-02T07:11:28.189Z,31.25
2023-05-02T07:12:05.234Z,30.94
2023-05-02T07:12:39.680Z,31.04
2023-05-02T07:13:14.863Z,31.24
2023-05-02T07:13:47.214Z,31.27
2023-05-02T07:14:22.146Z,31.24
2023-05-02T07:14:54.490Z,31.49
2023-05-02T07:15:29.313Z,31.15
2023-05-02T07:16:01.800Z,30.92
2023-05-02T07:16:34.098Z,30.89
2023-05-02T07:17:09.187Z,30.88
2023-05-02T07:17:42.032Z,31.24
2023-05-02T07:18:14.619Z,31.10
2023-05-02T07:18:49.643Z,31.60
2023-05-02T07:19:21.916Z,30.85
2023-05-02T07:19:57.239Z,30.75
2023-05-02T07:20:29.495Z,30.41
2023-05-02T07:21:07.150Z,30.63
2023-05-02T07:21:39.317Z,30.24
2023-05-02T07:22:11.522Z,30.30
2023-05-02T07:22:46.395Z,30.23
2023-05-02T07:23:18.709Z,30.41
2023-05-02T07:23:50.988Z,30.34
2023-05-02T07:24:26.574Z,30.38
2023-05-02T07:24:59.793Z,30.48
2023-05-02T07:25:34.689Z,29.63
2023-05-02T07:26:08.104Z,30.15
2023-05-02T07:26:40.368Z,30.10
2023-05-02T07:27:16.204Z,30.49
2023-05-02T07:27:48.437Z,30.26
2023-05-02T07:28:20.898Z,30.45
2023-05-02T07:28:55.892Z,31.01
2023-05-02T07:29:28.094Z,30.92
2023-05-02T07:30:03.180Z,31.17
2023-05-02T07:30:35.764Z,30.91
2023-05-02T07:31:10.717Z,31.73
2023-05-02T07:31:42.958Z,31.61
2023-05-02T07:32:15.229Z,30.89
2023-05-02T07:32:50.026Z,31.03
2023-05-02T07:33:22.566Z,30.58
2023-05-02T07:33:54.974Z,30.32
2023-05-02T07:34:30.348Z,29.77
2023-05-02T07:35:02.635Z,29.91